createdAt,value
2023-04-21T00:02:20.280Z,8.29
2023-04-21T00:04:47.244Z,8.24
2023-04-21T00:07:16.743Z,8.17
2023-04-21T00:09:43.325Z,8.08
2023-04-21T00:12:09.934Z,7.97
2023-04-21T00:14:36.459Z,7.86
2023-04-21T00:17:03.227Z,7.79
2023-04-21T00:19:30.615Z,7.71
2023-04-21T00:21:59.698Z,7.66
2023-04-21T00:24:26.376Z,7.61
2023-04-21T00:26:53.062Z,7.57
2023-04-21T00:29:22.472Z,7.50
2023-04-21T00:31:49.969Z,7.42
2023-04-21T00:34:16.699Z,7.32
2023-04-21T00:36:43.369Z,7.25
2023-04-21T00:39:09.940Z,7.21
2023-04-21T00:41:36.967Z,7.19
2023-04-21T00:44:05.591Z,7.15
2023-04-21T00:46:33.738Z,7.11
2023-04-21T00:49:03.196Z,7.07
2023-04-21T00:51:33.187Z,7.03
2023-04-21T00:54:02.349Z,6.97
2023-04-21T00:56:31.998Z,6.92
2023-04-21T00:59:00.449Z,6.88
2023-04-21T01:01:29.931Z,6.81
2023-04-21T01:04:01.585Z,6.75
2023-04-21T01:06:32.319Z,6.67
2023-04-21T01:08:58.888Z,6.60
2023-04-21T01:11:26.274Z,6.54
2023-04-21T01:13:56.705Z,6.47
2023-04-21T01:16:24.298Z,6.40
2023-04-21T01:18:53.732Z,6.36
2023-04-21T01:21:21.810Z,6.31
2023-04-21T01:23:48.681Z,6.26
2023-04-21T01:26:19.086Z,6.20
2023-04-21T01:28:47.651Z,6.16
2023-04-21T01:31:16.525Z,6.13
2023-04-21T01:33:43.394Z,6.08
2023-04-21T01:36:13.454Z,6.02
2023-04-21T01:38:41.433Z,5.95
2023-04-21T01:41:09.388Z,5.90
2023-04-21T01:43:37.062Z,5.86
2023-04-21T01:46:05.020Z,5.83
2023-04-21T01:48:31.703Z,5.79
2023-04-21T01:50:58.981Z,5.76
2023-04-21T01:53:26.855Z,5.73
2023-04-21T01:55:53.433Z,5.70
2023-04-21T01:58:21.142Z,5.67
2023-04-21T02:00:47.829Z,5.62
2023-04-21T02:03:14.512Z,5.57
2023-04-21T02:05:41.164Z,5.52
2023-04-21T02:08:07.897Z,5.48
2023-04-21T02:10:34.638Z,5.42
2023-04-21T02:13:01.193Z,5.40
2023-04-21T02:20:06.981Z,5.23
2023-04-21T02:22:33.742Z,5.15
2023-04-21T02:25:02.972Z,5.06
2023-04-21T02:27:29.668Z,5.01
2023-04-21T02:29:59.477Z,4.95
2023-04-21T02:32:26.438Z,4.90
2023-04-21T02:34:53.159Z,4.88
2023-04-21T02:37:20.370Z,4.86
2023-04-21T02:39:46.924Z,4.83
2023-04-21T02:42:13.477Z,4.80
2023-04-21T02:44:40.049Z,4.78
2023-04-21T02:47:06.890Z,4.76
2023-04-21T02:49:33.501Z,4.74
2023-04-21T02:51:59.985Z,4.69
2023-04-21T02:54:26.765Z,4.65
2023-04-21T02:56:53.313Z,4.60
2023-04-21T02:59:20.094Z,4.54
2023-04-21T03:01:49.109Z,4.50
2023-04-21T03:04:15.828Z,4.48
2023-04-21T03:06:42.614Z,4.48
2023-04-21T03:09:09.142Z,4.46
2023-04-21T03:11:35.857Z,4.43
2023-04-21T03:14:02.413Z,4.42
2023-04-21T03:16:29.529Z,4.40
2023-04-21T03:18:56.214Z,4.35
2023-04-21T03:21:22.735Z,4.31
2023-04-21T03:23:49.278Z,4.26
2023-04-21T03:26:16.462Z,4.22
2023-04-21T03:28:43.432Z,4.19
2023-04-21T03:31:09.958Z,4.16
2023-04-21T03:33:36.578Z,4.14
2023-04-21T03:36:03.217Z,4.12
2023-04-21T03:38:29.955Z,4.10
2023-04-21T03:40:56.907Z,4.08
2023-04-21T03:43:23.448Z,4.07
2023-04-21T03:45:50.016Z,4.06
2023-04-21T03:48:21.160Z,4.07
2023-04-21T03:50:47.772Z,4.09
2023-04-21T03:53:14.835Z,4.09
2023-04-21T03:55:41.414Z,4.10
2023-04-21T03:58:08.027Z,4.10
2023-04-21T04:00:34.797Z,4.08
2023-04-21T04:03:01.429Z,4.06
2023-04-21T04:05:28.394Z,4.09
2023-04-21T04:07:54.987Z,4.16
2023-04-21T04:10:21.518Z,4.25
2023-04-21T04:12:48.049Z,4.37
2023-04-21T04:15:15.535Z,4.50
2023-04-21T04:17:42.212Z,4.64
2023-04-21T04:20:11.301Z,4.76
2023-04-21T04:22:38.036Z,4.88
2023-04-21T04:25:05.503Z,4.99
2023-04-21T04:27:32.357Z,5.09
2023-04-21T04:29:59.210Z,5.21
2023-04-21T04:32:29.309Z,5.32
2023-04-21T04:34:55.889Z,5.44
2023-04-21T04:37:22.737Z,5.56
2023-04-21T04:39:50.386Z,5.66
2023-04-21T04:42:17.434Z,5.76
2023-04-21T04:44:44.162Z,5.87
2023-04-21T04:47:10.687Z,5.98
2023-04-21T04:49:37.308Z,6.10
2023-04-21T04:52:04.298Z,6.21
2023-04-21T04:54:30.917Z,6.33
2023-04-21T04:56:58.086Z,6.46
2023-04-21T04:59:24.731Z,6.59
2023-04-21T05:01:51.564Z,6.74
2023-04-21T05:04:18.590Z,6.91
2023-04-21T05:06:45.661Z,7.07
2023-04-21T05:09:14.663Z,7.23
2023-04-21T05:11:42.039Z,7.37
2023-04-21T05:14:08.708Z,7.49
2023-04-21T05:16:35.861Z,7.61
2023-04-21T05:19:03.535Z,7.74
2023-04-21T05:21:31.289Z,7.86
2023-04-21T05:23:59.215Z,7.98
2023-04-21T05:26:27.580Z,8.11
2023-04-21T05:28:58.708Z,8.23
2023-04-21T05:31:26.400Z,8.36
2023-04-21T05:33:53.441Z,8.49
2023-04-21T05:36:20.482Z,8.61
2023-04-21T05:38:47.612Z,8.74
2023-04-21T05:41:14.277Z,8.86
2023-04-21T05:43:40.921Z,8.99
2023-04-21T05:46:11.456Z,9.09
2023-04-21T05:48:38.498Z,9.21
2023-04-21T05:51:12.836Z,9.34
2023-04-21T05:53:40.081Z,9.47
2023-04-21T05:56:09.948Z,9.57
2023-04-21T05:58:42.396Z,9.71
2023-04-21T06:01:11.468Z,9.85
2023-04-21T06:03:40.357Z,10.00
2023-04-21T06:06:10.416Z,10.17
2023-04-21T06:08:39.296Z,10.32
2023-04-21T06:11:07.816Z,10.49
2023-04-21T06:13:38.848Z,10.66
2023-04-21T06:16:09.127Z,10.79
2023-04-21T06:18:38.398Z,11.03
2023-04-21T06:21:07.300Z,11.27
2023-04-21T06:23:36.359Z,11.57
2023-04-21T06:26:07.804Z,12.09
2023-04-21T06:28:39.361Z,12.86
2023-04-21T06:31:09.909Z,13.77
2023-04-21T06:33:38.384Z,14.76
2023-04-21T06:36:07.064Z,15.75
2023-04-21T06:38:36.096Z,16.70
2023-04-21T06:41:04.690Z,17.52
2023-04-21T06:43:34.313Z,18.35
2023-04-21T06:46:03.689Z,19.15
2023-04-21T06:48:33.340Z,19.95
2023-04-21T06:51:02.914Z,20.74
2023-04-21T06:53:31.639Z,21.47
2023-04-21T07:05:56.373Z,24.27
2023-04-21T07:08:23.022Z,24.88
2023-04-21T07:10:49.863Z,25.43
2023-04-21T07:13:17.883Z,25.96
2023-04-21T07:15:44.626Z,26.46
2023-04-21T07:18:11.235Z,26.82
2023-04-21T07:20:38.043Z,27.30
2023-04-21T07:23:04.935Z,27.75
2023-04-21T07:25:31.494Z,28.10
2023-04-21T07:27:58.110Z,28.61
2023-04-21T07:30:24.779Z,29.10
2023-04-21T07:32:51.646Z,29.50
2023-04-21T07:35:18.517Z,29.89
2023-04-21T07:37:45.639Z,30.30
2023-04-21T07:40:12.276Z,30.75
2023-04-21T07:42:39.509Z,31.25
2023-04-21T07:45:07.223Z,31.60
2023-04-21T07:47:33.837Z,31.70
2023-04-21T07:50:00.528Z,32.11
2023-04-21T07:52:27.330Z,32.44
2023-04-21T07:54:53.927Z,32.74
2023-04-21T07:57:20.512Z,33.12
2023-04-21T07:59:47.099Z,33.29
2023-04-21T08:02:13.793Z,33.40
2023-04-21T08:04:40.412Z,33.17
2023-04-21T08:07:07.486Z,33.14
2023-04-21T08:09:34.363Z,33.16
2023-04-21T08:12:02.247Z,33.28
2023-04-21T08:14:29.170Z,33.26
2023-04-21T08:16:57.289Z,32.97
2023-04-21T08:19:24.626Z,32.87
2023-04-21T08:21:51.233Z,33.04
2023-04-21T08:24:17.896Z,33.52
2023-04-21T08:26:45.139Z,33.70
2023-04-21T08:29:13.430Z,33.67
2023-04-21T08:31:40.253Z,33.85
2023-04-21T08:34:07.383Z,33.90
2023-04-21T08:36:34.552Z,33.95
2023-04-21T08:39:01.846Z,34.21
2023-04-21T08:41:28.482Z,33.65
2023-04-21T08:43:55.803Z,33.11
2023-04-21T08:46:23.433Z,33.35
2023-04-21T08:48:50.070Z,33.92
2023-04-21T08:51:24.318Z,34.25
2023-04-21T08:53:51.925Z,34.48
2023-04-21T08:56:18.851Z,34.49
2023-04-21T08:58:45.389Z,34.12
2023-04-21T09:01:12.313Z,34.12
2023-04-21T09:03:39.253Z,34.02
2023-04-21T09:06:09.604Z,34.48
2023-04-21T09:08:43.407Z,34.72
2023-04-21T09:11:14.448Z,34.53
2023-04-21T09:13:43.229Z,34.18
2023-04-21T09:16:21.766Z,33.85
2023-04-21T09:18:50.261Z,33.89
2023-04-21T09:21:19.731Z,33.85
2023-04-21T09:23:48.567Z,33.70
2023-04-21T09:26:16.539Z,33.90
2023-04-21T09:28:45.163Z,34.12
2023-04-21T09:31:29.203Z,34.44
2023-04-21T09:34:01.072Z,34.72
2023-04-21T09:36:30.791Z,34.85
2023-04-21T09:39:29.186Z,34.77
2023-04-21T09:41:49.615Z,34.82
2023-04-21T09:44:17.723Z,34.68
2023-04-21T09:46:50.060Z,34.74
2023-04-21T09:49:22.713Z,35.00
2023-04-21T09:52:14.646Z,35.19
2023-04-21T09:54:40.742Z,35.48
2023-04-21T09:57:13.610Z,35.70
2023-04-21T09:59:46.345Z,34.72
2023-04-21T10:02:13.899Z,34.18
2023-04-21T10:04:43.895Z,33.87
2023-04-21T10:07:11.743Z,34.05
2023-04-21T10:09:54.751Z,34.71
2023-04-21T10:12:22.746Z,35.02
2023-04-21T10:14:56.937Z,35.21
2023-04-21T10:17:25.485Z,34.49
2023-04-21T10:19:59.116Z,34.42
2023-04-21T10:22:33.873Z,34.96
2023-04-21T10:25:03.558Z,35.48
2023-04-21T10:27:40.625Z,35.99
2023-04-21T10:30:22.454Z,36.27
2023-04-21T10:33:01.831Z,36.30
2023-04-21T10:36:01.044Z,36.00
2023-04-21T10:38:35.698Z,35.56
2023-04-21T10:41:27.727Z,35.02
2023-04-21T10:43:54.715Z,34.90
2023-04-21T10:46:35.142Z,35.16
2023-04-21T10:49:23.787Z,35.37
2023-04-21T10:51:59.710Z,35.26
2023-04-21T10:54:28.365Z,35.09
2023-04-21T10:56:56.726Z,35.12
2023-04-21T10:59:25.220Z,35.47
2023-04-21T11:01:52.536Z,35.78
2023-04-21T11:04:23.148Z,35.31
2023-04-21T11:07:11.967Z,34.93
2023-04-21T11:09:40.045Z,34.45
2023-04-21T11:12:10.861Z,34.22
2023-04-21T11:14:40.428Z,34.35
2023-04-21T11:17:16.149Z,34.56
2023-04-21T11:19:54.399Z,34.28
2023-04-21T11:22:23.884Z,34.02
2023-04-21T11:24:54.284Z,33.82
2023-04-21T11:28:00.409Z,33.78
2023-04-21T11:30:34.869Z,33.53
2023-04-21T11:33:01.818Z,33.80
2023-04-21T11:35:32.158Z,33.95
2023-04-21T11:37:58.900Z,34.20
2023-04-21T11:40:25.633Z,33.86
2023-04-21T11:42:52.756Z,33.15
2023-04-21T11:45:22.532Z,31.99
2023-04-21T11:47:49.514Z,31.47
2023-04-21T11:50:31.614Z,31.57
2023-04-21T11:52:58.340Z,31.26
2023-04-21T11:55:25.001Z,31.38
2023-04-21T11:57:51.572Z,31.72
2023-04-21T12:00:19.017Z,32.25
2023-04-21T12:02:54.616Z,32.74
2023-04-21T12:05:22.354Z,32.39
2023-04-21T12:07:48.910Z,31.80
2023-04-21T12:10:19.250Z,31.28
2023-04-21T12:12:46.520Z,31.26
2023-04-21T12:15:20.156Z,31.33
2023-04-21T12:17:48.965Z,30.99
2023-04-21T12:20:16.686Z,30.81
2023-04-21T12:22:43.739Z,30.88
2023-04-21T12:25:10.509Z,30.82
2023-04-21T12:27:37.256Z,30.58
2023-04-21T12:30:04.681Z,30.54
2023-04-21T12:32:31.415Z,30.15
2023-04-21T12:34:58.126Z,29.83
2023-04-21T12:37:24.712Z,29.54
2023-04-21T12:39:51.263Z,29.58
2023-04-21T12:42:17.811Z,29.72
2023-04-21T12:44:45.688Z,30.02
2023-04-21T12:47:12.305Z,30.26
2023-04-21T12:49:39.146Z,30.22
2023-04-21T12:52:06.261Z,29.61
2023-04-21T12:54:33.835Z,29.25
2023-04-21T12:57:00.704Z,29.17
2023-04-21T12:59:27.490Z,28.90
2023-04-21T13:01:54.984Z,28.83
2023-04-21T13:04:21.932Z,29.09
2023-04-21T13:06:48.970Z,29.28
2023-04-21T13:09:17.038Z,29.27
2023-04-21T13:11:43.751Z,29.02
2023-04-21T13:14:11.003Z,28.61
2023-04-21T13:16:37.972Z,28.15
2023-04-21T13:19:05.003Z,27.95
2023-04-21T13:21:32.761Z,28.00
2023-04-21T13:23:59.408Z,28.03
2023-04-21T13:26:27.070Z,27.87
2023-04-21T13:28:53.827Z,27.66
2023-04-21T13:31:20.651Z,27.28
2023-04-21T13:33:47.359Z,26.97
2023-04-21T13:36:14.069Z,26.58
2023-04-21T13:38:41.091Z,26.40
2023-04-21T13:41:08.693Z,26.26
2023-04-21T13:43:35.850Z,26.36
2023-04-21T13:46:02.529Z,26.52
2023-04-21T13:48:29.945Z,26.68
2023-04-21T13:50:56.723Z,26.88
2023-04-21T13:53:26.990Z,26.90
2023-04-21T13:55:56.908Z,26.86
2023-04-21T13:58:23.689Z,26.59
2023-04-21T14:00:50.453Z,26.41
2023-04-21T14:03:17.325Z,26.49
2023-04-21T14:05:44.101Z,26.48
2023-04-21T14:08:11.082Z,26.40
2023-04-21T14:10:37.863Z,26.15
2023-04-21T14:13:05.279Z,25.90
2023-04-21T14:15:32.192Z,25.66
2023-04-21T14:17:58.944Z,25.44
2023-04-21T14:20:25.904Z,25.21
2023-04-21T14:22:52.477Z,24.89
2023-04-21T14:25:19.239Z,24.88
2023-04-21T14:27:45.912Z,24.97
2023-04-21T14:30:13.896Z,25.04
2023-04-21T14:32:45.651Z,25.04
2023-04-21T14:35:13.133Z,24.87
2023-04-21T14:37:40.724Z,24.70
2023-04-21T14:40:08.809Z,24.47
2023-04-21T14:42:36.129Z,24.35
2023-04-21T14:45:02.854Z,24.18
2023-04-21T14:47:29.742Z,24.08
2023-04-21T14:49:57.017Z,24.09
2023-04-21T14:52:27.231Z,23.99
2023-04-21T14:54:53.960Z,23.73
2023-04-21T14:57:21.933Z,23.42
2023-04-21T14:59:50.559Z,23.14
2023-04-21T15:02:18.020Z,22.92
2023-04-21T15:04:45.049Z,22.76
2023-04-21T15:07:12.481Z,22.65
2023-04-21T15:09:39.405Z,22.55
2023-04-21T15:12:06.485Z,22.37
2023-04-21T15:14:33.286Z,22.17
2023-04-21T15:17:00.212Z,22.01
2023-04-21T15:19:26.956Z,21.98
2023-04-21T15:21:53.764Z,22.00
2023-04-21T15:24:20.603Z,21.97
2023-04-21T15:26:47.366Z,21.91
2023-04-21T15:29:14.289Z,21.81
2023-04-21T15:31:41.163Z,21.71
2023-04-21T15:34:08.805Z,21.63
2023-04-21T15:36:35.894Z,21.57
2023-04-21T15:39:03.041Z,21.47
2023-04-21T15:41:31.736Z,21.37
2023-04-21T15:44:00.283Z,21.27
2023-04-21T15:46:26.989Z,21.19
2023-04-21T15:48:53.929Z,21.11
2023-04-21T15:51:20.903Z,20.98
2023-04-21T15:53:49.650Z,20.84
2023-04-21T15:56:17.923Z,20.72
2023-04-21T15:58:44.982Z,20.59
2023-04-21T16:01:12.343Z,20.44
2023-04-21T16:03:40.238Z,20.27
2023-04-21T16:06:07.740Z,20.18
2023-04-21T16:08:34.563Z,20.08
2023-04-21T16:11:01.796Z,20.04
2023-04-21T16:13:29.339Z,20.09
2023-04-21T16:15:56.467Z,20.05
2023-04-21T16:18:23.296Z,20.00
2023-04-21T16:20:50.518Z,19.99
2023-04-21T16:23:17.252Z,19.88
2023-04-21T16:25:44.024Z,19.73
2023-04-21T16:28:11.660Z,19.59
2023-04-21T16:30:43.173Z,19.46
2023-04-21T16:33:14.607Z,19.32
2023-04-21T16:35:41.659Z,19.19
2023-04-21T16:38:08.731Z,19.08
2023-04-21T16:40:35.370Z,18.99
2023-04-21T16:43:02.284Z,18.92
2023-04-21T16:45:29.866Z,18.91
2023-04-21T16:47:57.793Z,18.84
2023-04-21T16:50:24.797Z,18.71
2023-04-21T16:52:51.573Z,18.58
2023-04-21T16:55:18.792Z,18.46
2023-04-21T16:57:45.573Z,18.36
2023-04-21T17:00:13.741Z,18.26
2023-04-21T17:02:40.433Z,18.14
2023-04-21T17:05:07.590Z,17.99
2023-04-21T17:07:34.406Z,17.84
2023-04-21T17:10:01.389Z,17.69
2023-04-21T17:12:27.958Z,17.54
2023-04-21T17:14:54.532Z,17.39
2023-04-21T17:17:21.196Z,17.27
2023-04-21T17:19:48.341Z,17.16
2023-04-21T17:22:14.922Z,17.03
2023-04-21T17:24:52.546Z,16.92
2023-04-21T17:27:20.904Z,16.79
2023-04-21T17:29:47.744Z,16.65
2023-04-21T17:32:14.470Z,16.52
2023-04-21T17:34:41.229Z,16.39
2023-04-21T17:37:08.000Z,16.25
2023-04-21T17:39:34.620Z,16.10
2023-04-21T17:42:02.590Z,15.97
2023-04-21T17:44:29.435Z,15.85
2023-04-21T17:46:56.636Z,15.72
2023-04-21T17:49:24.849Z,15.59
2023-04-21T17:51:51.710Z,15.46
2023-04-21T17:54:18.395Z,15.32
2023-04-21T17:56:47.902Z,15.19
2023-04-21T17:59:14.929Z,15.03
2023-04-21T18:01:41.570Z,14.88
2023-04-21T18:04:08.594Z,14.74
2023-04-21T18:06:36.692Z,14.59
2023-04-21T18:09:05.232Z,14.47
2023-04-21T18:11:32.016Z,14.37
2023-04-21T18:13:59.044Z,14.26
2023-04-21T18:16:26.436Z,14.15
2023-04-21T18:18:53.368Z,14.05
2023-04-21T18:21:20.781Z,13.93
2023-04-21T18:23:47.414Z,13.79
2023-04-21T18:26:14.059Z,13.67
2023-04-21T18:28:40.653Z,13.56
2023-04-21T18:31:07.267Z,13.44
2023-04-21T18:33:34.497Z,13.34
2023-04-21T18:36:01.257Z,13.22
2023-04-21T18:38:27.853Z,13.11
2023-04-21T18:40:55.753Z,13.01
2023-04-21T18:43:22.616Z,12.89
2023-04-21T18:45:49.264Z,12.77
2023-04-21T18:48:15.922Z,12.66
2023-04-21T18:50:42.868Z,12.55
2023-04-21T18:53:09.595Z,12.44
2023-04-21T18:55:37.405Z,12.31
2023-04-21T18:58:04.333Z,12.17
2023-04-21T19:00:32.316Z,12.00
2023-04-21T19:03:04.111Z,11.84
2023-04-21T19:05:31.961Z,11.70
2023-04-21T19:07:58.897Z,11.55
2023-04-21T19:10:26.684Z,11.38
2023-04-21T19:12:53.771Z,11.26
2023-04-21T19:15:22.151Z,11.11
2023-04-21T19:17:48.725Z,10.98
2023-04-21T19:20:15.702Z,10.85
2023-04-21T19:22:42.396Z,10.74
2023-04-21T19:25:09.853Z,10.64
2023-04-21T19:27:36.949Z,10.53
2023-04-21T19:30:05.068Z,10.41
2023-04-21T19:32:31.847Z,10.30
2023-04-21T19:34:58.696Z,10.20
2023-04-21T19:37:26.492Z,10.12
2023-04-21T19:39:53.261Z,10.03
2023-04-21T19:42:19.958Z,9.95
2023-04-21T19:44:46.670Z,9.86
2023-04-21T19:47:13.572Z,9.77
2023-04-21T19:49:40.527Z,9.69
2023-04-21T19:52:07.143Z,9.60
2023-04-21T19:54:34.062Z,9.49
2023-04-21T19:57:01.736Z,9.40
2023-04-21T19:59:28.607Z,9.32
2023-04-21T20:01:55.468Z,9.23
2023-04-21T20:04:22.574Z,9.15
2023-04-21T20:06:49.401Z,9.05
2023-04-21T20:09:16.111Z,8.95
2023-04-21T20:11:43.801Z,8.87
2023-04-21T20:14:10.728Z,8.79
2023-04-21T20:16:37.862Z,8.74
2023-04-21T20:19:04.638Z,8.67
2023-04-21T20:21:32.418Z,8.60
2023-04-21T20:23:59.142Z,8.53
2023-04-21T20:26:26.123Z,8.51
2023-04-21T20:28:52.768Z,8.48
2023-04-21T20:31:23.594Z,8.44
2023-04-21T20:33:50.481Z,8.40
2023-04-21T20:36:17.760Z,8.35
2023-04-21T20:38:46.423Z,8.27
2023-04-21T20:41:13.593Z,8.21
2023-04-21T20:43:40.599Z,8.13
2023-04-21T20:46:08.775Z,8.02
2023-04-21T20:48:35.546Z,7.94
2023-04-21T20:51:02.799Z,7.90
2023-04-21T20:53:29.425Z,7.87
2023-04-21T20:55:56.340Z,7.87
2023-04-21T20:58:24.474Z,7.84
2023-04-21T21:00:51.480Z,7.81
2023-04-21T21:03:21.022Z,7.77
2023-04-21T21:05:47.996Z,7.71
2023-04-21T21:08:15.232Z,7.67
2023-04-21T21:10:42.480Z,7.61
2023-04-21T21:13:09.168Z,7.59
2023-04-21T21:15:35.988Z,7.59
2023-04-21T21:18:04.662Z,7.56
2023-04-21T21:20:31.533Z,7.53
2023-04-21T21:22:58.160Z,7.53
2023-04-21T21:25:25.077Z,7.50
2023-04-21T21:27:51.780Z,7.47
2023-04-21T21:30:18.610Z,7.46
2023-04-21T21:32:49.559Z,7.41
2023-04-21T21:35:16.716Z,7.37
2023-04-21T21:37:43.325Z,7.32
2023-04-21T21:40:11.038Z,7.29
2023-04-21T21:42:39.100Z,7.27
2023-04-21T21:45:06.717Z,7.24
2023-04-21T21:47:36.487Z,7.21
2023-04-21T21:50:05.840Z,7.18
2023-04-21T21:52:32.450Z,7.14
2023-04-21T21:54:59.098Z,7.07
2023-04-21T21:57:25.805Z,7.00
2023-04-21T21:59:52.641Z,6.95
2023-04-21T22:02:19.311Z,6.92
2023-04-21T22:04:46.121Z,6.89
2023-04-21T22:07:12.733Z,6.85
2023-04-21T22:09:40.040Z,6.81
2023-04-21T22:12:07.387Z,6.78
2023-04-21T22:14:34.269Z,6.74
2023-04-21T22:17:00.943Z,6.69
2023-04-21T22:19:27.564Z,6.63
2023-04-21T22:21:54.353Z,6.52
2023-04-21T22:24:21.256Z,6.44
2023-04-21T22:26:48.207Z,6.40
2023-04-21T22:29:14.802Z,6.37
2023-04-21T22:31:41.618Z,6.35
2023-04-21T22:34:08.564Z,6.33
2023-04-21T22:36:35.204Z,6.29
2023-04-21T22:39:01.972Z,6.23
2023-04-21T22:41:28.632Z,6.17
2023-04-21T22:43:57.746Z,6.12
2023-04-21T22:46:24.390Z,6.06
2023-04-21T22:48:54.122Z,6.01
2023-04-21T22:51:21.575Z,5.95
2023-04-21T22:53:48.196Z,5.91
2023-04-21T22:56:15.171Z,5.89
2023-04-21T22:58:42.812Z,5.87
2023-04-21T23:01:09.662Z,5.83
2023-04-21T23:03:37.104Z,5.79
2023-04-21T23:06:04.011Z,5.74
2023-04-21T23:08:30.535Z,5.68
2023-04-21T23:10:57.563Z,5.62
2023-04-21T23:13:24.206Z,5.56
2023-04-21T23:15:50.754Z,5.51
2023-04-21T23:18:17.445Z,5.48
2023-04-21T23:20:44.118Z,5.46
2023-04-21T23:23:10.707Z,5.41
2023-04-21T23:25:37.364Z,5.34
2023-04-21T23:28:03.999Z,5.25
2023-04-21T23:30:30.649Z,5.20
2023-04-21T23:32:57.588Z,5.17
2023-04-21T23:35:24.230Z,5.14
2023-04-21T23:37:50.744Z,5.00
2023-04-21T23:40:17.432Z,4.91
2023-04-21T23:42:47.537Z,4.87
2023-04-21T23:45:14.675Z,4.82
2023-04-21T23:47:41.490Z,4.73
2023-04-21T23:50:08.294Z,4.68
2023-04-21T23:52:35.001Z,4.69
2023-04-21T23:55:01.645Z,4.69
2023-04-21T23:57:28.349Z,4.67
2023-04-21T23:59:54.869Z,4.65
